Time;durP1;ratioP1;P1;durP2;ratioP2;P2;SDS_P1;SDS_P2;PMS_P1;PMS_P2;Temp;Humidity;BMP_temperature;BMP_pressure;BME280_temperature;BME280_humidity;BME280_pressure;Samples;Min_cycle;Max_cycle;Signal;HPM_P1;HPM_P2
2022/01/21 00:00:55;;;;;;;4.57;1.10;;;;;;;-3.93;100.00;101399.72;5039394;28;21128;-79
2022/01/21 00:03:22;;;;;;;9.30;1.10;;;;;;;-3.95;100.00;101402.19;5043547;28;20473;-79
2022/01/21 00:05:48;;;;;;;2.40;1.10;;;;;;;-4.01;100.00;101412.06;5040818;28;20957;-79
2022/01/21 00:08:15;;;;;;;7.87;1.30;;;;;;;-3.97;100.00;101403.78;5043133;28;20515;-79
2022/01/21 00:10:43;;;;;;;2.00;0.93;;;;;;;-3.94;100.00;101405.59;5038542;28;20453;-79
2022/01/21 00:13:18;;;;;;;3.90;1.53;;;;;;;-3.88;100.00;101410.97;5040622;28;20474;-79
2022/01/21 00:15:44;;;;;;;2.87;1.10;;;;;;;-3.87;100.00;101415.25;5046070;28;20827;-79
2022/01/21 00:18:12;;;;;;;1.60;1.00;;;;;;;-3.82;100.00;101414.69;5042073;28;20479;-79
2022/01/21 00:31:35;;;;;;;5.40;0.80;;;;;;;-3.80;100.00;101419.81;5039876;28;20452;-77
2022/01/21 00:34:02;;;;;;;4.50;0.90;;;;;;;-3.86;100.00;101414.47;5040495;28;20483;-77
2022/01/21 00:36:28;;;;;;;1.80;0.90;;;;;;;-3.86;100.00;101422.97;5038240;28;20987;-77
2022/01/21 00:38:56;;;;;;;1.40;0.80;;;;;;;-3.85;100.00;101426.41;5041629;28;20474;-77
2022/01/21 00:41:28;;;;;;;1.60;0.97;;;;;;;-3.92;100.00;101426.91;5036872;28;21184;-77
2022/01/21 00:43:55;;;;;;;2.50;1.07;;;;;;;-3.84;100.00;101420.50;5037029;28;20459;-77
2022/01/21 00:46:21;;;;;;;1.60;0.83;;;;;;;-3.79;100.00;101426.69;5041883;28;20455;-77
2022/01/21 00:48:48;;;;;;;4.13;1.30;;;;;;;-3.81;100.00;101436.81;5036077;28;20533;-77
2022/01/21 00:51:14;;;;;;;5.17;0.80;;;;;;;-3.77;100.00;101439.50;5042095;28;20451;-77
2022/01/21 00:53:41;;;;;;;2.43;0.93;;;;;;;-3.78;100.00;101443.72;5039722;28;20475;-77
2022/01/21 00:56:07;;;;;;;3.27;0.90;;;;;;;-3.73;100.00;101443.91;5041906;28;20480;-77
2022/01/21 00:58:36;;;;;;;5.03;0.87;;;;;;;-3.70;100.00;101462.75;5039417;28;20487;-77
2022/01/21 01:01:03;;;;;;;3.67;1.03;;;;;;;-3.64;100.00;101450.31;5041284;28;20459;-77
2022/01/21 01:03:29;;;;;;;2.70;0.97;;;;;;;-3.61;100.00;101457.22;5036229;28;20451;-77
2022/01/21 01:05:56;;;;;;;5.80;1.13;;;;;;;-3.62;100.00;101460.59;5031293;28;20452;-77
2022/01/21 01:08:23;;;;;;;4.90;1.30;;;;;;;-3.58;100.00;101464.13;5035506;28;20882;-77
2022/01/21 01:11:12;;;;;;;5.57;1.20;;;;;;;-3.50;100.00;101473.88;5040034;28;20471;-77
2022/01/21 01:21:54;;;;;;;1.93;1.10;;;;;;;-3.36;100.00;101460.84;5039153;28;20461;-77
2022/01/21 01:29:50;;;;;;;3.53;1.10;;;;;;;-3.28;100.00;101456.97;5037919;28;20508;-77
2022/01/21 01:32:17;;;;;;;1.60;0.80;;;;;;;-3.26;99.04;101465.56;5042504;28;20551;-77
2022/01/21 01:34:43;;;;;;;2.37;1.20;;;;;;;-3.25;98.56;101467.31;5036894;28;20854;-77
2022/01/21 01:37:20;;;;;;;5.17;1.10;;;;;;;-3.21;98.22;101466.63;5035243;28;20536;-77
2022/01/21 01:39:58;;;;;;;3.47;1.00;;;;;;;-3.17;97.30;101465.94;5035497;28;21037;-77
2022/01/21 01:42:56;;;;;;;4.27;1.43;;;;;;;-3.15;96.76;101463.47;5046051;28;20461;-77
2022/01/21 01:51:03;;;;;;;2.00;0.83;;;;;;;-3.03;95.35;101468.22;5011217;28;20445;-76
2022/01/21 01:53:33;;;;;;;4.57;0.90;;;;;;;-3.00;94.47;101487.09;5037422;28;20469;-76
2022/01/21 01:56:00;;;;;;;2.03;0.97;;;;;;;-2.98;93.08;101472.72;5050171;28;20571;-77
2022/01/21 01:58:26;;;;;;;2.23;0.80;;;;;;;-2.93;92.54;101475.47;5047405;28;20478;-76
2022/01/21 02:00:56;;;;;;;4.73;1.00;;;;;;;-2.95;91.79;101470.28;5037538;28;21050;-76
2022/01/21 02:03:24;;;;;;;2.77;0.83;;;;;;;-2.92;91.96;101478.09;5034657;28;20207;-76
2022/01/21 02:05:50;;;;;;;3.67;1.23;;;;;;;-2.94;92.60;101481.38;5038648;28;20468;-76
2022/01/21 02:08:17;;;;;;;3.27;1.20;;;;;;;-2.93;91.93;101478.03;5039219;28;20472;-76
2022/01/21 02:10:43;;;;;;;3.93;1.10;;;;;;;-2.92;91.70;101482.31;5037974;28;20325;-76
2022/01/21 02:13:20;;;;;;;3.57;0.90;;;;;;;-2.92;91.70;101483.19;5040823;28;20199;-76
2022/01/21 02:15:59;;;;;;;2.73;0.93;;;;;;;-2.90;90.84;101494.34;5036901;28;21104;-76
2022/01/21 02:21:34;;;;;;;2.87;1.00;;;;;;;-2.86;89.63;101488.53;5036791;28;20452;-76
2022/01/21 02:24:04;;;;;;;1.27;0.80;;;;;;;-2.80;89.06;101492.16;5041550;28;20449;-76
2022/01/21 02:26:30;;;;;;;5.23;0.83;;;;;;;-2.79;87.49;101487.13;5053077;28;20535;-76
2022/01/21 02:28:59;;;;;;;4.97;0.80;;;;;;;-2.77;87.74;101493.16;5037714;28;20556;-76
2022/01/21 02:31:26;;;;;;;5.27;0.90;;;;;;;-2.82;87.22;101491.22;5043174;28;20463;-76
2022/01/21 02:33:52;;;;;;;3.10;0.93;;;;;;;-2.87;86.27;101503.78;5055767;28;20465;-76
2022/01/21 02:36:20;;;;;;;4.27;1.07;;;;;;;-2.97;86.13;101505.09;5035313;28;20581;-76
2022/01/21 02:38:47;;;;;;;3.73;1.10;;;;;;;-3.07;86.43;101511.47;5038638;28;20514;-76
2022/01/21 02:41:14;;;;;;;1.57;0.67;;;;;;;-3.18;87.00;101502.47;5060376;28;20460;-76
2022/01/21 02:43:40;;;;;;;4.50;1.10;;;;;;;-3.26;86.34;101508.91;5056252;28;20470;-76
2022/01/21 02:46:09;;;;;;;1.70;0.90;;;;;;;-3.33;86.72;101510.31;5058669;28;20455;-76
2022/01/21 02:48:37;;;;;;;4.67;1.30;;;;;;;-3.37;86.91;101511.00;5035537;28;20485;-76
2022/01/21 02:51:06;;;;;;;3.80;0.87;;;;;;;-3.43;86.37;101521.78;5034458;28;20468;-76
2022/01/21 02:54:03;;;;;;;6.50;1.00;;;;;;;-3.51;86.44;101518.03;5037699;28;20657;-76
2022/01/21 02:56:27;;;;;;;4.67;1.10;;;;;;;-3.53;86.68;101513.66;5040757;28;20564;-76
2022/01/21 02:58:54;;;;;;;2.73;1.17;;;;;;;-3.62;86.79;101522.63;5041734;28;21347;-76
2022/01/21 03:01:21;;;;;;;3.13;0.80;;;;;;;-3.65;86.62;101531.81;5038009;28;20471;-76
2022/01/21 03:03:48;;;;;;;3.17;0.90;;;;;;;-3.66;86.06;101536.06;5046075;28;20502;-76
2022/01/21 03:06:18;;;;;;;2.53;1.00;;;;;;;-3.68;87.04;101518.91;5041180;28;20451;-76
2022/01/21 03:08:48;;;;;;;2.90;1.00;;;;;;;-3.73;87.52;101522.94;5043169;28;20576;-76
2022/01/21 03:11:16;;;;;;;1.50;0.73;;;;;;;-3.81;87.70;101525.13;5038488;28;20844;-76
2022/01/21 03:13:45;;;;;;;2.43;0.90;;;;;;;-3.90;88.59;101525.56;5034911;28;20986;-76
2022/01/21 03:16:12;;;;;;;2.60;1.00;;;;;;;-3.86;87.46;101521.50;5039651;28;20488;-76
2022/01/21 03:18:39;;;;;;;2.60;1.00;;;;;;;-3.87;87.40;101529.94;5042175;28;20503;-79
2022/01/21 03:21:06;;;;;;;3.10;1.00;;;;;;;-3.94;87.88;101522.81;5039826;28;20458;-79
2022/01/21 03:23:34;;;;;;;2.53;0.83;;;;;;;-4.00;88.80;101519.16;5044240;28;20457;-79
2022/01/21 03:26:03;;;;;;;2.10;0.67;;;;;;;-4.01;88.26;101517.44;5043553;28;20521;-78
2022/01/21 03:28:44;;;;;;;3.07;1.20;;;;;;;-4.03;88.84;101520.69;5041600;28;20904;-78
2022/01/21 03:31:11;;;;;;;6.63;1.20;;;;;;;-4.03;88.73;101520.69;5047734;28;20545;-79
2022/01/21 03:33:37;;;;;;;3.33;1.13;;;;;;;-4.06;88.35;101521.44;5043887;28;20547;-78
2022/01/21 03:36:04;;;;;;;6.43;0.90;;;;;;;-4.12;88.95;101527.91;5039168;28;20524;-78
2022/01/21 03:38:30;;;;;;;4.47;0.80;;;;;;;-4.14;88.78;101525.28;5061199;28;20486;-79
2022/01/21 03:40:57;;;;;;;4.53;0.80;;;;;;;-4.10;88.70;101534.81;5061897;28;20662;-79
2022/01/21 03:43:26;;;;;;;3.30;0.90;;;;;;;-4.14;89.17;101532.06;5044284;28;20467;-78
2022/01/21 03:45:54;;;;;;;1.93;0.80;;;;;;;-4.22;89.70;101536.75;5043641;28;20455;-78
2022/01/21 03:48:21;;;;;;;5.33;0.97;;;;;;;-4.22;89.09;101537.66;5041836;28;21003;-78
2022/01/21 03:50:48;;;;;;;2.23;1.00;;;;;;;-4.26;90.17;101539.97;5040273;28;20474;-78
2022/01/21 03:53:15;;;;;;;2.60;1.00;;;;;;;-4.29;89.30;101547.44;5041384;28;20464;-78
2022/01/21 03:55:41;;;;;;;3.50;0.80;;;;;;;-4.36;89.67;101551.38;5041909;28;20478;-78
2022/01/21 03:58:09;;;;;;;2.63;0.87;;;;;;;-4.37;90.30;101544.53;5059601;28;20493;-78
2022/01/21 04:00:45;;;;;;;1.40;0.90;;;;;;;-4.35;89.30;101552.25;5039212;28;20470;-78
2022/01/21 04:03:12;;;;;;;2.33;0.70;;;;;;;-4.38;89.79;101553.84;5043181;28;21029;-78
2022/01/21 04:05:39;;;;;;;1.40;0.87;;;;;;;-4.35;89.81;101554.81;5041539;28;21060;-79
2022/01/21 04:08:08;;;;;;;2.33;0.83;;;;;;;-4.42;89.88;101556.16;5046192;28;20480;-78
2022/01/21 04:10:35;;;;;;;1.90;0.77;;;;;;;-4.44;90.04;101558.63;5042424;28;20513;-79
2022/01/21 04:13:03;;;;;;;1.70;0.97;;;;;;;-4.45;90.32;101561.09;5044037;28;20462;-78
2022/01/21 04:15:30;;;;;;;9.53;1.40;;;;;;;-4.46;89.98;101561.91;5042181;28;20882;-79
2022/01/21 04:17:57;;;;;;;1.83;1.20;;;;;;;-4.45;89.67;101563.63;5035333;28;20486;-78
2022/01/21 04:20:25;;;;;;;1.10;0.80;;;;;;;-4.45;89.78;101556.91;5057098;28;20451;-79
2022/01/21 04:22:53;;;;;;;6.23;0.97;;;;;;;-4.56;90.53;101550.38;5059085;28;20462;-79
2022/01/21 04:25:20;;;;;;;4.23;1.03;;;;;;;-4.52;90.36;101557.41;5042727;28;20608;-79
2022/01/21 04:27:47;;;;;;;1.67;0.90;;;;;;;-4.56;90.44;101552.94;5043724;28;20734;-78
2022/01/21 04:30:14;;;;;;;3.80;0.87;;;;;;;-4.57;90.58;101558.84;5044519;28;20482;-78
2022/01/21 04:32:40;;;;;;;4.40;1.13;;;;;;;-4.57;90.85;101566.47;5044178;28;20462;-79
2022/01/21 04:35:17;;;;;;;4.77;1.07;;;;;;;-4.57;90.93;101561.38;5039793;28;21587;-79
2022/01/21 04:37:50;;;;;;;4.67;1.17;;;;;;;-4.61;90.61;101564.53;5042204;28;20979;-79
2022/01/21 04:40:19;;;;;;;10.73;1.03;;;;;;;-4.64;90.72;101562.72;5057294;28;20593;-79
2022/01/21 04:48:16;;;;;;;4.83;0.97;;;;;;;-4.50;90.14;101567.63;5039336;28;20473;-78
2022/01/21 04:50:54;;;;;;;2.23;1.00;;;;;;;-4.47;89.45;101572.88;5038838;28;20523;-78
2022/01/21 04:53:20;;;;;;;2.73;1.00;;;;;;;-4.49;89.51;101572.81;5042221;28;20453;-79
2022/01/21 04:55:49;;;;;;;2.17;1.00;;;;;;;-4.57;89.71;101563.94;5040371;28;20513;-79
2022/01/21 04:58:16;;;;;;;6.70;1.20;;;;;;;-4.63;90.78;101567.00;5044002;28;20483;-78
2022/01/21 05:00:48;;;;;;;4.07;0.97;;;;;;;-4.64;90.42;101572.06;5039814;28;20463;-79
2022/01/21 05:03:17;;;;;;;5.57;1.30;;;;;;;-4.59;90.07;101573.13;5054680;28;20558;-79
2022/01/21 05:05:44;;;;;;;5.67;1.03;;;;;;;-4.62;89.80;101580.63;5039778;28;20457;-79
2022/01/21 05:08:21;;;;;;;1.40;0.90;;;;;;;-4.59;90.36;101585.84;5034505;28;21166;-79
2022/01/21 05:10:48;;;;;;;5.93;1.00;;;;;;;-4.62;90.48;101578.94;5035547;28;20864;-79
2022/01/21 05:13:16;;;;;;;1.80;0.93;;;;;;;-4.63;90.35;101583.97;5036838;28;20768;-79
2022/01/21 05:16:00;;;;;;;3.23;1.03;;;;;;;-4.64;90.29;101588.19;5035906;28;20894;-79
2022/01/21 05:18:28;;;;;;;7.33;1.23;;;;;;;-4.67;90.69;101590.56;5057930;28;21092;-79
2022/01/21 05:21:26;;;;;;;3.00;0.80;;;;;;;-4.73;91.27;101592.81;5044970;28;20461;-79
2022/01/21 05:24:01;;;;;;;7.83;1.40;;;;;;;-4.77;91.72;101583.25;5039932;28;21191;-79
2022/01/21 05:26:35;;;;;;;2.87;0.80;;;;;;;-4.81;92.01;101581.34;5037944;28;20764;-79
2022/01/21 05:29:03;;;;;;;3.50;1.03;;;;;;;-4.78;91.21;101587.47;5054830;28;20462;-79
2022/01/21 05:32:09;;;;;;;2.17;1.00;;;;;;;-4.84;91.60;101597.31;5000035;28;20464;-79
2022/01/21 05:34:42;;;;;;;6.27;1.07;;;;;;;-4.82;91.52;101585.56;4994502;28;20464;-79
2022/01/21 05:37:16;;;;;;;1.07;0.70;;;;;;;-4.81;91.76;101586.44;5023631;28;20564;-79
2022/01/21 05:40:13;;;;;;;1.83;0.90;;;;;;;-4.80;91.49;101585.63;5039448;28;20495;-79
2022/01/21 05:43:02;;;;;;;1.83;1.00;;;;;;;-4.78;91.01;101582.38;5039777;28;20465;-79
2022/01/21 05:48:50;;;;;;;4.60;1.07;;;;;;;-4.89;90.89;101583.50;5040157;28;20557;-79
2022/01/21 05:52:00;;;;;;;5.73;0.90;;;;;;;-4.94;91.48;101577.31;5018686;28;20486;-79
2022/01/21 05:54:41;;;;;;;3.10;1.00;;;;;;;-4.91;90.93;101562.19;5039050;28;20466;-79
2022/01/21 05:57:35;;;;;;;3.40;1.10;;;;;;;-4.88;90.65;101576.75;5040696;28;20485;-79
2022/01/21 06:00:01;;;;;;;3.03;1.03;;;;;;;-4.92;90.91;101572.28;5037674;28;20629;-79
2022/01/21 06:02:28;;;;;;;4.37;1.03;;;;;;;-4.97;91.38;101572.06;5042922;28;20458;-79
2022/01/21 06:04:55;;;;;;;2.10;1.10;;;;;;;-4.95;91.21;101571.31;5050506;28;20812;-79
2022/01/21 06:07:22;;;;;;;3.53;1.70;;;;;;;-4.99;91.08;101577.06;5056534;28;20840;-79
2022/01/21 06:09:49;;;;;;;4.10;1.10;;;;;;;-5.02;90.96;101578.56;5038718;28;20549;-79
2022/01/21 06:12:16;;;;;;;1.80;1.23;;;;;;;-5.03;91.26;101574.25;5043194;28;20516;-78
2022/01/21 06:14:42;;;;;;;4.93;1.20;;;;;;;-5.01;91.28;101568.47;5040418;28;20466;-79
2022/01/21 06:17:12;;;;;;;2.07;1.23;;;;;;;-5.03;91.00;101572.63;5040815;28;20474;-79
2022/01/21 06:19:38;;;;;;;4.77;1.70;;;;;;;-5.09;90.97;101576.50;5044488;28;20469;-78
2022/01/21 06:22:05;;;;;;;4.10;1.10;;;;;;;-5.07;91.49;101573.22;5041529;28;20461;-79
2022/01/21 06:24:32;;;;;;;3.70;1.10;;;;;;;-5.09;91.11;101581.59;5042920;28;20981;-76
2022/01/21 06:27:02;;;;;;;4.83;1.20;;;;;;;-5.09;90.82;101581.59;5032641;28;20488;-76
2022/01/21 06:29:28;;;;;;;4.87;1.30;;;;;;;-5.07;90.94;101580.00;5037203;28;21062;-76
2022/01/21 06:31:55;;;;;;;4.23;1.20;;;;;;;-5.08;90.30;101585.88;5032891;28;20454;-76
2022/01/21 06:34:21;;;;;;;2.00;1.20;;;;;;;-5.08;90.45;101585.88;5042349;28;20463;-76
2022/01/21 06:36:48;;;;;;;4.00;1.23;;;;;;;-5.08;89.83;101583.31;5035506;28;20528;-76
2022/01/21 06:39:15;;;;;;;5.47;1.20;;;;;;;-5.14;90.17;101581.34;5028784;28;20454;-76
2022/01/21 06:41:44;;;;;;;3.87;1.40;;;;;;;-5.10;89.83;101585.81;5034291;28;20458;-77
2022/01/21 06:44:11;;;;;;;3.13;1.10;;;;;;;-5.08;89.48;101590.94;5035458;28;20865;-76
2022/01/21 06:46:38;;;;;;;4.50;1.23;;;;;;;-5.10;89.50;101595.09;5033319;28;20810;-77
2022/01/21 06:49:04;;;;;;;2.07;1.00;;;;;;;-5.07;89.62;101593.56;5032214;28;21002;-77
2022/01/21 06:51:31;;;;;;;5.07;1.13;;;;;;;-5.05;89.16;101598.75;5040879;28;20461;-77
2022/01/21 06:53:57;;;;;;;4.67;1.00;;;;;;;-5.04;89.03;101586.13;5041615;28;20454;-77
2022/01/21 06:56:23;;;;;;;3.60;1.10;;;;;;;-5.09;89.85;101582.44;5033854;28;20477;-77
2022/01/21 06:58:50;;;;;;;2.17;1.00;;;;;;;-5.09;89.21;101585.00;5038795;28;20484;-77
2022/01/21 07:01:17;;;;;;;1.57;1.03;;;;;;;-5.15;89.40;101585.56;5036006;28;20450;-77
2022/01/21 07:03:44;;;;;;;1.80;1.13;;;;;;;-5.11;89.91;101585.72;5038101;28;20882;-77
2022/01/21 07:06:11;;;;;;;1.87;1.10;;;;;;;-4.99;88.42;101586.38;5037276;28;20450;-77
2022/01/21 07:08:37;;;;;;;2.43;1.00;;;;;;;-5.05;89.19;101584.34;5035933;28;21211;-76
2022/01/21 07:11:04;;;;;;;4.83;1.13;;;;;;;-5.09;89.84;101589.22;5041149;28;20462;-77
2022/01/21 07:13:30;;;;;;;4.23;1.10;;;;;;;-5.03;89.22;101585.34;5035455;28;20461;-77
2022/01/21 07:15:58;;;;;;;4.17;1.10;;;;;;;-4.96;88.95;101587.41;5039985;28;20463;-77
2022/01/21 07:18:27;;;;;;;4.20;1.20;;;;;;;-4.98;89.32;101593.19;5036225;28;20494;-77
2022/01/21 07:20:53;;;;;;;5.07;1.00;;;;;;;-5.00;89.24;101587.16;5056609;28;21069;-77
2022/01/21 07:23:20;;;;;;;3.23;1.23;;;;;;;-4.97;89.13;101592.41;5041202;28;20445;-77
2022/01/21 07:25:46;;;;;;;1.63;1.07;;;;;;;-5.01;89.19;101593.91;5040509;28;20450;-77
2022/01/21 07:28:12;;;;;;;2.53;0.93;;;;;;;-4.97;89.91;101594.94;5036341;28;20481;-77
2022/01/21 07:30:39;;;;;;;5.23;1.07;;;;;;;-4.92;89.67;101610.44;5032879;28;20461;-77
2022/01/21 07:33:05;;;;;;;4.27;1.23;;;;;;;-4.90;90.09;101604.66;5041168;28;20465;-76
2022/01/21 07:35:33;;;;;;;1.07;0.90;;;;;;;-4.86;89.63;101615.84;5038996;28;20826;-77
2022/01/21 07:38:00;;;;;;;5.20;1.03;;;;;;;-4.86;90.36;101611.63;5041519;28;21023;-77
2022/01/21 07:40:26;;;;;;;5.37;1.30;;;;;;;-4.87;90.18;101614.09;5039891;28;20460;-77
2022/01/21 07:42:53;;;;;;;1.70;1.03;;;;;;;-4.84;90.25;101612.59;5042004;28;20971;-76
2022/01/21 07:45:19;;;;;;;4.50;1.57;;;;;;;-4.79;90.24;101615.38;5038927;28;20927;-77
2022/01/21 07:47:45;;;;;;;2.00;0.97;;;;;;;-4.76;90.42;101616.41;5041363;28;20482;-77
2022/01/21 07:50:12;;;;;;;1.53;0.93;;;;;;;-4.76;90.46;101613.88;5037794;28;20465;-77
2022/01/21 07:52:39;;;;;;;5.40;1.23;;;;;;;-4.72;90.93;101603.84;5044703;28;20445;-77
2022/01/21 07:55:06;;;;;;;3.57;1.07;;;;;;;-4.70;91.26;101617.53;5037895;28;21546;-77
2022/01/21 07:57:33;;;;;;;5.50;1.23;;;;;;;-4.69;91.58;101612.53;5037679;28;20482;-77
2022/01/21 07:59:59;;;;;;;5.00;1.13;;;;;;;-4.65;91.78;101618.66;5036582;28;20972;-77
2022/01/21 08:02:27;;;;;;;4.07;1.47;;;;;;;-4.62;91.83;101613.72;5041145;28;20529;-77
2022/01/21 08:04:55;;;;;;;5.90;1.10;;;;;;;-4.55;91.49;101620.88;5040645;28;21540;-77
2022/01/21 08:07:21;;;;;;;3.43;1.00;;;;;;;-4.50;91.90;101618.53;5034428;28;20851;-77
2022/01/21 08:09:49;;;;;;;5.00;1.57;;;;;;;-4.44;92.18;101617.19;5038060;28;20977;-77
2022/01/21 08:12:16;;;;;;;3.37;1.30;;;;;;;-4.44;92.53;101616.31;5038389;28;20556;-77
2022/01/21 08:14:43;;;;;;;9.73;1.47;;;;;;;-4.37;92.35;101621.78;5033451;28;20522;-77
2022/01/21 08:17:09;;;;;;;4.17;1.40;;;;;;;-4.30;92.16;101633.16;5037048;28;20483;-76
2022/01/21 08:19:36;;;;;;;4.77;1.40;;;;;;;-4.22;92.60;101628.44;5039231;28;20457;-77
2022/01/21 08:22:02;;;;;;;7.50;1.77;;;;;;;-4.20;92.37;101625.19;5041424;28;20936;-77
2022/01/21 08:24:28;;;;;;;4.47;1.43;;;;;;;-4.17;92.91;101616.81;5038124;28;20455;-77
2022/01/21 08:26:56;;;;;;;6.13;1.20;;;;;;;-4.15;92.88;101634.72;5037006;28;20859;-77
2022/01/21 08:29:23;;;;;;;8.57;1.43;;;;;;;-4.08;93.70;101630.03;5044676;28;20827;-77
2022/01/21 08:31:49;;;;;;;7.90;1.37;;;;;;;-4.02;94.13;101634.53;5037688;28;20479;-77
2022/01/21 08:34:16;;;;;;;4.53;1.57;;;;;;;-3.97;93.95;101640.75;5033457;28;20772;-77
2022/01/21 08:36:43;;;;;;;8.03;1.50;;;;;;;-3.94;93.64;101635.81;5041208;28;20501;-77
2022/01/21 08:39:10;;;;;;;3.23;1.13;;;;;;;-3.86;93.34;101643.81;5038250;28;20473;-77
2022/01/21 08:41:36;;;;;;;8.77;1.97;;;;;;;-3.81;93.56;101644.91;5040561;28;20822;-77
2022/01/21 08:44:05;;;;;;;3.70;1.33;;;;;;;-3.78;94.35;101657.81;5039957;28;20824;-77
2022/01/21 08:46:31;;;;;;;1.77;1.10;;;;;;;-3.74;94.08;101654.59;5035408;28;20459;-77
2022/01/21 08:48:58;;;;;;;3.30;1.13;;;;;;;-3.72;94.55;101653.00;5036634;28;20539;-77
2022/01/21 08:51:28;;;;;;;6.40;1.53;;;;;;;-3.69;95.25;101634.44;5040372;28;21040;-77
2022/01/21 08:53:54;;;;;;;5.90;1.57;;;;;;;-3.65;94.92;101636.34;5041108;28;20968;-77
2022/01/21 08:56:21;;;;;;;2.80;1.23;;;;;;;-3.59;95.07;101641.72;5045264;28;20448;-77
2022/01/21 08:58:49;;;;;;;7.57;2.20;;;;;;;-3.50;94.77;101646.38;5036134;28;20478;-77
2022/01/21 09:01:17;;;;;;;2.37;1.13;;;;;;;-3.45;95.24;101639.81;5036445;28;20453;-77
2022/01/21 09:03:44;;;;;;;6.60;1.57;;;;;;;-3.39;94.83;101657.97;5039051;28;20468;-77
2022/01/21 09:06:16;;;;;;;7.67;1.37;;;;;;;-3.35;94.91;101648.78;5040744;28;20973;-77
2022/01/21 09:08:45;;;;;;;4.70;1.60;;;;;;;-3.29;94.82;101644.84;5037908;28;20473;-77
2022/01/21 09:11:13;;;;;;;3.80;1.40;;;;;;;-3.24;94.86;101650.16;5034694;28;20508;-77
2022/01/21 09:13:41;;;;;;;4.00;1.60;;;;;;;-3.19;94.55;101645.28;5055309;28;20989;-77
2022/01/21 09:16:09;;;;;;;6.53;1.90;;;;;;;-3.15;95.19;101644.59;5034819;28;20456;-77
2022/01/21 09:18:46;;;;;;;9.63;1.43;;;;;;;-3.12;95.63;101645.63;5036172;28;20492;-77
2022/01/21 09:21:13;;;;;;;5.63;1.83;;;;;;;-3.06;95.30;101640.81;5041171;28;20461;-77
2022/01/21 09:23:39;;;;;;;7.57;2.43;;;;;;;-3.03;95.52;101637.50;5037025;28;20450;-77
2022/01/21 09:26:05;;;;;;;11.37;4.53;;;;;;;-3.00;95.14;101632.53;5038317;28;20478;-77
2022/01/21 09:28:32;;;;;;;16.73;5.00;;;;;;;-2.92;95.76;101636.31;5031732;28;20473;-77
2022/01/21 09:30:58;;;;;;;26.30;8.70;;;;;;;-2.88;96.24;101639.88;5035644;28;20464;-77
2022/01/21 09:33:24;;;;;;;31.93;10.10;;;;;;;-2.88;95.91;101648.41;5043036;28;20465;-77
2022/01/21 09:35:52;;;;;;;19.20;6.07;;;;;;;-2.83;96.00;101635.88;5035172;28;20454;-77
2022/01/21 09:38:20;;;;;;;9.83;2.97;;;;;;;-2.77;95.92;101630.16;5035447;28;20481;-77
2022/01/21 09:40:48;;;;;;;20.43;7.23;;;;;;;-2.73;96.56;101635.44;5038712;28;20462;-77
2022/01/21 09:43:15;;;;;;;8.23;3.80;;;;;;;-2.69;95.99;101628.78;5035542;28;20861;-77
2022/01/21 09:45:42;;;;;;;8.43;2.40;;;;;;;-2.62;96.65;101629.94;5031130;28;20464;-77
2022/01/21 09:48:10;;;;;;;7.83;2.67;;;;;;;-2.63;96.31;101630.75;5038771;28;20492;-77
2022/01/21 09:50:37;;;;;;;6.03;2.13;;;;;;;-2.59;96.58;101628.38;5036806;28;20988;-77
2022/01/21 09:53:07;;;;;;;8.07;2.10;;;;;;;-2.55;95.96;101639.63;5040511;28;20896;-77
2022/01/21 09:55:33;;;;;;;8.90;1.77;;;;;;;-2.51;95.67;101629.59;5037700;28;20900;-77
2022/01/21 09:58:00;;;;;;;8.47;2.07;;;;;;;-2.48;96.48;101623.75;5036640;28;20227;-77
2022/01/21 10:00:27;;;;;;;4.80;1.80;;;;;;;-2.45;96.76;101623.88;5034454;28;20241;-77
2022/01/21 10:02:56;;;;;;;10.60;2.00;;;;;;;-2.40;96.29;101614.75;5036517;28;20466;-77
2022/01/21 10:05:23;;;;;;;7.67;2.10;;;;;;;-2.33;96.30;101614.19;5037728;28;20203;-77
2022/01/21 10:07:50;;;;;;;6.97;1.80;;;;;;;-2.29;96.29;101612.63;5035063;28;20717;-77
2022/01/21 10:10:18;;;;;;;6.30;1.80;;;;;;;-2.21;96.75;101621.50;5033197;28;20196;-77
2022/01/21 10:12:47;;;;;;;8.40;1.77;;;;;;;-2.18;96.21;101616.53;5036111;28;20210;-77
2022/01/21 10:15:15;;;;;;;5.20;1.80;;;;;;;-2.15;95.97;101619.19;5040442;28;20224;-77
2022/01/21 10:18:03;;;;;;;5.63;1.70;;;;;;;-2.11;95.27;101618.53;5043605;28;20225;-77
2022/01/21 10:20:30;;;;;;;8.00;2.17;;;;;;;-2.07;96.30;101616.97;5037057;28;20330;-77
2022/01/21 10:22:58;;;;;;;8.70;2.00;;;;;;;-1.99;95.21;101633.47;5036008;28;20207;-76
2022/01/21 10:25:26;;;;;;;5.43;1.67;;;;;;;-1.94;95.53;101633.66;5035006;28;20207;-77
2022/01/21 10:27:53;;;;;;;10.07;2.20;;;;;;;-1.89;95.08;101631.31;5037053;28;20484;-77
2022/01/21 10:30:25;;;;;;;5.67;1.93;;;;;;;-1.84;94.99;101634.94;5032963;28;20203;-77
2022/01/21 10:32:52;;;;;;;8.20;2.17;;;;;;;-1.80;94.60;101635.09;5035051;28;20574;-77
2022/01/21 10:35:23;;;;;;;6.47;1.50;;;;;;;-1.73;94.78;101633.66;5040550;28;20476;-77
2022/01/21 10:37:50;;;;;;;6.53;1.70;;;;;;;-1.67;94.42;101636.50;5031695;28;20226;-77
2022/01/21 10:40:21;;;;;;;7.30;1.67;;;;;;;-1.64;94.73;101643.41;5035747;28;20191;-77
2022/01/21 10:42:49;;;;;;;9.03;2.30;;;;;;;-1.63;94.14;101651.13;5032509;28;20580;-76
2022/01/21 10:45:16;;;;;;;9.53;1.83;;;;;;;-1.63;94.18;101651.13;5037257;28;20199;-77
2022/01/21 10:47:49;;;;;;;10.03;4.20;;;;;;;-1.54;94.39;101654.06;5032041;28;20237;-77
2022/01/21 10:50:18;;;;;;;4.83;1.50;;;;;;;-1.47;93.41;101652.63;5028448;28;20200;-77
2022/01/21 10:52:49;;;;;;;7.00;1.87;;;;;;;-1.41;93.47;101650.28;5037278;28;20203;-77
2022/01/21 10:55:27;;;;;;;11.87;1.90;;;;;;;-1.40;92.30;101643.50;5043189;28;20191;-77
2022/01/21 10:58:07;;;;;;;7.77;1.40;;;;;;;-1.36;92.40;101650.47;5039620;28;20319;-77
2022/01/21 11:00:33;;;;;;;7.00;1.60;;;;;;;-1.35;92.18;101637.75;5042803;28;20199;-77
2022/01/21 11:03:10;;;;;;;5.93;1.60;;;;;;;-1.28;92.58;101649.09;5042486;28;20216;-77
2022/01/21 11:05:41;;;;;;;12.30;2.00;;;;;;;-1.27;92.12;101647.41;5036938;28;20203;-77
2022/01/21 11:08:08;;;;;;;5.73;1.43;;;;;;;-1.23;91.92;101651.81;5042448;28;20211;-77
2022/01/21 11:10:52;;;;;;;4.40;1.60;;;;;;;-1.15;91.70;101664.09;5038530;28;20207;-77
2022/01/21 11:13:31;;;;;;;7.33;1.53;;;;;;;-1.11;90.74;101651.41;5043656;28;20207;-77
2022/01/21 11:16:00;;;;;;;4.93;1.50;;;;;;;-1.10;91.19;101659.16;5038863;28;20210;-76
2022/01/21 11:18:29;;;;;;;9.53;1.80;;;;;;;-1.04;89.87;101666.19;5040650;28;20230;-77
2022/01/21 11:21:04;;;;;;;6.07;1.50;;;;;;;-1.07;88.22;101656.72;5039983;28;20675;-77
2022/01/21 11:23:32;;;;;;;6.50;1.70;;;;;;;-0.99;88.57;101647.63;5042939;28;20203;-77
2022/01/21 11:26:03;;;;;;;4.03;1.30;;;;;;;-0.96;89.14;101649.44;5038268;28;20195;-77
2022/01/21 11:28:39;;;;;;;6.77;1.67;;;;;;;-0.96;87.78;101646.88;5037888;28;20241;-77
2022/01/21 11:31:06;;;;;;;7.30;1.60;;;;;;;-0.94;88.69;101639.25;5041523;28;20214;-77
2022/01/21 11:33:33;;;;;;;7.23;1.63;;;;;;;-0.91;87.91;101640.25;5040455;28;20214;-77
2022/01/21 11:36:00;;;;;;;8.10;1.90;;;;;;;-0.92;87.80;101641.03;5043843;28;20222;-77
2022/01/21 11:38:28;;;;;;;6.23;1.87;;;;;;;-0.95;88.20;101635.81;5037867;28;20219;-77
2022/01/21 11:40:56;;;;;;;8.83;1.80;;;;;;;-0.89;88.92;101633.47;5043022;28;20199;-77
2022/01/21 11:43:25;;;;;;;4.63;1.77;;;;;;;-0.88;88.67;101625.00;5040687;28;20730;-77
2022/01/21 11:46:19;;;;;;;6.00;1.73;;;;;;;-0.79;88.68;101627.88;5046544;28;20294;-77
2022/01/21 11:48:52;;;;;;;7.50;2.13;;;;;;;-0.75;88.34;101615.19;5039339;28;20282;-77
2022/01/21 11:51:24;;;;;;;10.07;1.80;;;;;;;-0.71;88.95;101602.53;5036467;28;20638;-77
2022/01/21 11:53:52;;;;;;;3.97;1.53;;;;;;;-0.73;88.62;101611.88;5040683;28;20199;-77
2022/01/21 11:56:34;;;;;;;4.93;1.50;;;;;;;-0.73;87.06;101627.22;5039627;28;20207;-77
2022/01/21 11:59:11;;;;;;;4.67;1.40;;;;;;;-0.69;87.21;101631.63;5043325;28;20276;-77
2022/01/21 12:01:46;;;;;;;5.70;1.57;;;;;;;-0.66;87.65;101626.63;5040970;28;20203;-77
2022/01/21 12:04:13;;;;;;;5.07;1.50;;;;;;;-0.61;87.35;101622.53;5039327;28;20754;-77
2022/01/21 12:06:39;;;;;;;4.70;1.60;;;;;;;-0.58;86.39;101635.47;5039759;28;20214;-77
2022/01/21 12:09:08;;;;;;;6.03;1.80;;;;;;;-0.52;86.46;101637.38;5043112;28;20211;-77
2022/01/21 12:11:37;;;;;;;5.87;1.70;;;;;;;-0.45;86.52;101630.78;5039962;28;20244;-77
2022/01/21 12:14:27;;;;;;;8.23;1.53;;;;;;;-0.44;87.06;101632.50;5041207;28;20253;-77
2022/01/21 12:17:00;;;;;;;6.23;1.50;;;;;;;-0.34;86.32;101628.59;5044575;28;20709;-77